Time;durP1;ratioP1;P1;durP2;ratioP2;P2;SDS_P1;SDS_P2;PMS_P1;PMS_P2;Temp;Humidity;BMP_temperature;BMP_pressure;BME280_temperature;BME280_humidity;BME280_pressure;Samples;Min_cycle;Max_cycle;Signal;HPM_P1;HPM_P2
2023/04/07 00:00:12;;;;;;;34.25;17.45;;;;;;;7.68;100.00;101281.81;5034858;28;20026;-77
2023/04/07 00:02:37;;;;;;;30.00;15.90;;;;;;;7.68;100.00;101276.47;5042408;28;20033;-77
2023/04/07 00:05:03;;;;;;;31.92;17.08;;;;;;;7.69;100.00;101288.91;5043313;28;20021;-77
2023/04/07 00:07:28;;;;;;;33.30;18.10;;;;;;;7.71;100.00;101288.81;5029437;28;20044;-77
2023/04/07 00:09:53;;;;;;;29.73;15.68;;;;;;;7.70;100.00;101287.97;5035292;28;20034;-77
2023/04/07 00:12:19;;;;;;;29.83;15.30;;;;;;;7.69;100.00;101280.88;5033900;28;20033;-77
2023/04/07 00:14:44;;;;;;;29.05;15.98;;;;;;;7.68;100.00;101281.81;5041519;28;20026;-77
2023/04/07 00:17:09;;;;;;;32.20;17.08;;;;;;;7.68;100.00;101281.81;5043144;28;20025;-77
2023/04/07 00:19:35;;;;;;;34.20;16.67;;;;;;;7.68;100.00;101280.97;5040428;28;20101;-77
2023/04/07 00:22:00;;;;;;;31.10;16.38;;;;;;;7.67;100.00;101280.13;5032881;28;20034;-77
2023/04/07 00:24:26;;;;;;;32.78;18.10;;;;;;;7.65;100.00;101292.69;5034643;28;20025;-77
2023/04/07 00:26:51;;;;;;;32.70;17.17;;;;;;;7.66;100.00;101285.56;5035611;28;20030;-77
2023/04/07 00:29:16;;;;;;;29.50;16.75;;;;;;;7.66;100.00;101296.25;5038865;28;20320;-77
2023/04/07 00:31:42;;;;;;;34.60;16.42;;;;;;;7.64;100.00;101296.34;5043153;28;20053;-77
2023/04/07 00:34:07;;;;;;;29.45;16.92;;;;;;;7.62;100.00;101290.19;5038361;28;20029;-77
2023/04/07 00:36:32;;;;;;;31.58;16.25;;;;;;;7.63;100.00;101294.59;5038828;28;20037;-77
2023/04/07 00:38:58;;;;;;;29.23;16.08;;;;;;;7.62;100.00;101295.53;5031505;28;20449;-77
2023/04/07 00:41:23;;;;;;;37.75;17.00;;;;;;;7.63;100.00;101286.56;5041892;28;20017;-77
2023/04/07 00:43:50;;;;;;;30.95;17.02;;;;;;;7.63;100.00;101291.06;5039757;28;20034;-77
2023/04/07 00:46:16;;;;;;;29.58;15.95;;;;;;;7.62;100.00;101287.50;5044158;28;20028;-77
2023/04/07 00:48:42;;;;;;;29.50;15.73;;;;;;;7.60;100.00;101289.41;5035192;28;20025;-77
2023/04/07 00:51:07;;;;;;;31.20;16.77;;;;;;;7.58;100.00;101288.63;5039306;28;20107;-77
2023/04/07 00:53:33;;;;;;;34.47;17.33;;;;;;;7.57;100.00;101284.22;5040176;28;20033;-77
2023/04/07 00:55:58;;;;;;;31.77;16.45;;;;;;;7.56;100.00;101287.00;5038969;28;20018;-77
2023/04/07 00:58:23;;;;;;;31.17;18.02;;;;;;;7.54;100.00;101289.75;5039438;28;20321;-77
2023/04/07 01:00:58;;;;;;;31.65;16.63;;;;;;;7.52;100.00;101292.47;5030293;28;20033;-78
2023/04/07 01:03:32;;;;;;;32.88;18.17;;;;;;;7.52;100.00;101287.13;5013417;28;20029;-78
2023/04/07 01:06:01;;;;;;;32.70;18.05;;;;;;;7.49;100.00;101291.78;5012356;28;20160;-78
2023/04/07 01:08:26;;;;;;;31.23;17.90;;;;;;;7.49;100.00;101291.78;5012222;28;20030;-78
2023/04/07 01:10:57;;;;;;;31.50;17.80;;;;;;;7.48;100.00;101290.06;5007953;28;20056;-78
2023/04/07 01:13:28;;;;;;;30.58;17.58;;;;;;;7.47;100.00;101289.19;5004810;28;20068;-78
2023/04/07 01:15:55;;;;;;;29.38;15.73;;;;;;;7.48;100.00;101295.41;5015549;28;20557;-78
2023/04/07 01:18:25;;;;;;;32.55;17.73;;;;;;;7.45;100.00;101290.22;5014856;28;20033;-78
2023/04/07 01:20:54;;;;;;;30.83;17.67;;;;;;;7.44;100.00;101288.50;5012274;28;20063;-78
2023/04/07 01:23:30;;;;;;;32.35;17.92;;;;;;;7.43;100.00;101289.44;5019905;28;20342;-78
2023/04/07 01:26:16;;;;;;;35.45;19.02;;;;;;;7.43;100.00;101294.81;5016038;28;20029;-78
2023/04/07 01:29:04;;;;;;;29.83;16.67;;;;;;;7.44;100.00;101293.88;5014195;28;20084;-78
2023/04/07 01:31:29;;;;;;;30.90;18.13;;;;;;;7.43;100.00;101292.97;5006939;28;20040;-78
2023/04/07 01:34:00;;;;;;;31.52;16.60;;;;;;;7.43;100.00;101308.16;5018471;28;20100;-78
2023/04/07 01:36:30;;;;;;;31.58;16.30;;;;;;;7.44;100.00;101293.88;5024491;28;20091;-78
2023/04/07 01:38:57;;;;;;;31.15;16.17;;;;;;;7.42;100.00;101301.94;5016505;28;20066;-78
2023/04/07 01:41:24;;;;;;;26.42;14.27;;;;;;;7.44;100.00;101302.75;5022367;28;20542;-78
2023/04/07 01:43:51;;;;;;;26.42;12.85;;;;;;;7.43;100.00;101305.50;5013303;28;20014;-79
2023/04/07 01:46:16;;;;;;;29.08;13.10;;;;;;;7.42;100.00;101299.25;5023624;28;20196;-78
2023/04/07 01:48:42;;;;;;;26.77;11.75;;;;;;;7.41;100.00;101296.66;5024700;28;20501;-78
2023/04/07 01:51:10;;;;;;;28.27;12.38;;;;;;;7.41;100.00;101305.59;5022053;28;20037;-79
2023/04/07 01:53:37;;;;;;;25.30;11.50;;;;;;;7.40;100.00;101309.19;5015108;28;20049;-78
2023/04/07 01:56:03;;;;;;;25.63;11.88;;;;;;;7.39;100.00;101311.94;5013631;28;20030;-78
2023/04/07 01:58:28;;;;;;;23.63;10.05;;;;;;;7.38;100.00;101315.56;5012052;28;20076;-78
2023/04/07 02:00:54;;;;;;;25.08;10.68;;;;;;;7.39;100.00;101319.97;5018283;28;20029;-78
2023/04/07 02:03:26;;;;;;;22.50;9.95;;;;;;;7.38;100.00;101318.22;5022545;28;20018;-78
2023/04/07 02:05:55;;;;;;;25.95;9.73;;;;;;;7.38;100.00;101326.25;5010469;28;20061;-78
2023/04/07 02:08:24;;;;;;;22.67;10.07;;;;;;;7.35;100.00;101320.13;5011339;28;20022;-78
2023/04/07 02:10:50;;;;;;;25.88;10.75;;;;;;;7.35;100.00;101322.81;5016401;28;20143;-78
2023/04/07 02:13:19;;;;;;;24.10;11.77;;;;;;;7.36;100.00;101323.66;5022805;28;20386;-78
2023/04/07 02:15:46;;;;;;;30.50;11.20;;;;;;;7.35;100.00;101330.81;5022673;28;20026;-78
2023/04/07 02:18:13;;;;;;;25.15;10.63;;;;;;;7.36;100.00;101321.00;5012069;28;20409;-78
2023/04/07 02:20:41;;;;;;;26.35;11.38;;;;;;;7.37;100.00;101322.72;5019977;28;20053;-78
2023/04/07 02:23:07;;;;;;;29.25;11.52;;;;;;;7.35;100.00;101314.78;5019458;28;20050;-78
2023/04/07 02:25:33;;;;;;;28.73;12.35;;;;;;;7.35;100.00;101316.59;5018426;28;20224;-78
2023/04/07 02:27:59;;;;;;;30.20;13.23;;;;;;;7.33;100.00;101313.13;5009127;28;20026;-78
2023/04/07 02:30:26;;;;;;;24.83;11.77;;;;;;;7.32;100.00;101317.63;5022889;28;20116;-78
2023/04/07 02:32:52;;;;;;;28.90;13.25;;;;;;;7.32;100.00;101316.75;5014199;28;20525;-78
2023/04/07 02:35:18;;;;;;;27.52;14.27;;;;;;;7.33;100.00;101307.78;5013510;28;20123;-78
2023/04/07 02:37:45;;;;;;;29.88;15.05;;;;;;;7.32;100.00;101316.75;5016084;28;20497;-78
2023/04/07 02:40:11;;;;;;;29.08;14.90;;;;;;;7.31;100.00;101310.53;5017647;28;20022;-78
2023/04/07 02:42:36;;;;;;;31.88;14.80;;;;;;;7.32;100.00;101312.28;5020375;28;20076;-78
2023/04/07 02:45:03;;;;;;;30.23;16.42;;;;;;;7.33;100.00;101310.47;5021362;28;20489;-78
2023/04/07 02:47:29;;;;;;;28.40;14.57;;;;;;;7.32;100.00;101306.94;5017892;28;20533;-78
2023/04/07 02:49:54;;;;;;;26.05;13.63;;;;;;;7.33;100.00;101313.97;5016496;28;20116;-78
2023/04/07 02:52:20;;;;;;;29.55;13.50;;;;;;;7.33;100.00;101313.97;5013563;28;20032;-78
2023/04/07 02:54:46;;;;;;;26.83;12.38;;;;;;;7.31;100.00;101309.69;5021524;28;20127;-78
2023/04/07 02:57:12;;;;;;;28.15;12.40;;;;;;;7.29;100.00;101312.44;5018501;28;20030;-78
2023/04/07 02:59:37;;;;;;;27.10;12.88;;;;;;;7.28;100.00;101321.41;5020147;28;20341;-78
2023/04/07 03:02:03;;;;;;;25.50;12.63;;;;;;;7.30;100.00;101315.97;5019533;28;20041;-78
2023/04/07 03:04:28;;;;;;;27.38;11.15;;;;;;;7.31;100.00;101315.88;5019078;28;20038;-78
2023/04/07 03:06:55;;;;;;;28.80;11.90;;;;;;;7.33;100.00;101319.34;5018279;28;20422;-78
2023/04/07 03:09:20;;;;;;;26.92;11.70;;;;;;;7.32;100.00;101316.75;5005171;28;20025;-78
2023/04/07 03:11:46;;;;;;;27.13;12.65;;;;;;;7.31;100.00;101321.22;5013458;28;20324;-78
2023/04/07 03:14:11;;;;;;;24.60;12.68;;;;;;;7.31;100.00;101328.41;5017842;28;20050;-78
2023/04/07 03:16:36;;;;;;;25.20;12.45;;;;;;;7.29;100.00;101328.47;5019073;28;20541;-78
2023/04/07 03:19:02;;;;;;;26.42;10.60;;;;;;;7.28;100.00;101329.41;5019001;28;20025;-78
2023/04/07 03:21:27;;;;;;;30.15;12.27;;;;;;;7.28;100.00;101328.56;5018162;28;20029;-78
2023/04/07 03:23:53;;;;;;;24.67;11.13;;;;;;;7.25;100.00;101329.56;5017842;28;20014;-78
2023/04/07 03:26:18;;;;;;;29.52;11.82;;;;;;;7.25;100.00;101318.03;5027148;28;20028;-78
2023/04/07 03:28:44;;;;;;;26.45;11.05;;;;;;;7.23;100.00;101323.44;5019991;28;20108;-78
2023/04/07 03:31:09;;;;;;;26.42;10.30;;;;;;;7.21;100.00;101319.97;5019236;28;20152;-78
2023/04/07 03:33:34;;;;;;;27.52;11.65;;;;;;;7.18;100.00;101323.66;5018009;28;20025;-78
2023/04/07 03:36:00;;;;;;;25.88;11.05;;;;;;;7.21;100.00;101324.47;5018127;28;20025;-78
2023/04/07 03:38:25;;;;;;;25.92;10.57;;;;;;;7.19;100.00;101327.22;5019391;28;20057;-78
2023/04/07 03:40:50;;;;;;;23.77;10.85;;;;;;;7.18;100.00;101328.16;5007647;28;20030;-78
2023/04/07 03:43:16;;;;;;;25.02;10.23;;;;;;;7.18;100.00;101328.16;5022836;28;20022;-78
2023/04/07 03:45:41;;;;;;;25.52;11.93;;;;;;;7.19;100.00;101327.22;5020661;28;20159;-77
2023/04/07 03:48:10;;;;;;;26.42;12.27;;;;;;;7.18;100.00;101322.81;5021581;28;20371;-78
2023/04/07 03:50:39;;;;;;;28.98;12.90;;;;;;;7.18;100.00;101325.50;5017773;28;20133;-78
2023/04/07 03:53:04;;;;;;;30.98;13.07;;;;;;;7.17;100.00;101323.75;5013287;28;20041;-78
2023/04/07 03:55:30;;;;;;;25.20;12.65;;;;;;;7.17;100.00;101331.78;5017730;28;20147;-78
2023/04/07 03:57:56;;;;;;;30.27;13.13;;;;;;;7.16;100.00;101336.25;5015436;28;20032;-78
2023/04/07 04:00:22;;;;;;;33.00;13.23;;;;;;;7.18;100.00;101330.84;5016088;28;20075;-78
2023/04/07 04:02:47;;;;;;;25.60;12.32;;;;;;;7.15;100.00;101334.53;5014461;28;20025;-78
2023/04/07 04:05:12;;;;;;;26.70;12.45;;;;;;;7.13;100.00;101340.88;5024095;28;20052;-78
2023/04/07 04:07:38;;;;;;;30.23;14.38;;;;;;;7.12;100.00;101337.34;5010580;28;20069;-78
2023/04/07 04:10:03;;;;;;;29.45;13.98;;;;;;;7.12;100.00;101332.00;5015933;28;20034;-77
2023/04/07 04:12:29;;;;;;;33.50;14.13;;;;;;;7.12;100.00;101333.84;5008402;28;20056;-78
2023/04/07 04:14:54;;;;;;;31.90;14.02;;;;;;;7.12;100.00;101328.47;5014917;28;20585;-78
2023/04/07 04:17:20;;;;;;;30.63;13.85;;;;;;;7.11;100.00;101329.41;5015355;28;20035;-78
2023/04/07 04:19:45;;;;;;;29.50;12.55;;;;;;;7.08;100.00;101327.75;5009753;28;20059;-78
2023/04/07 04:22:10;;;;;;;36.47;14.02;;;;;;;7.06;100.00;101329.66;5013865;28;20425;-78
2023/04/07 04:24:36;;;;;;;30.60;13.95;;;;;;;7.02;100.00;101328.06;5009333;28;20486;-78
2023/04/07 04:27:01;;;;;;;27.45;12.68;;;;;;;7.00;100.00;101328.16;5011989;28;20493;-78
2023/04/07 04:29:26;;;;;;;26.10;12.38;;;;;;;6.96;100.00;101329.25;5017125;28;20032;-78
2023/04/07 04:31:52;;;;;;;27.85;12.45;;;;;;;6.95;100.00;101327.50;5014102;28;20025;-78
2023/04/07 04:34:17;;;;;;;28.40;12.88;;;;;;;6.95;100.00;101329.31;5019934;28;20116;-78
2023/04/07 04:36:42;;;;;;;29.85;12.95;;;;;;;6.90;100.00;101334.91;5019957;28;20055;-78
2023/04/07 04:39:08;;;;;;;27.20;11.70;;;;;;;6.89;100.00;101335.84;5015757;28;20030;-78
2023/04/07 04:41:33;;;;;;;28.45;12.02;;;;;;;6.85;100.00;101342.28;5017203;28;20031;-78
2023/04/07 04:43:59;;;;;;;26.42;12.70;;;;;;;6.85;100.00;101344.09;5013996;28;20026;-78
2023/04/07 04:46:24;;;;;;;29.08;12.38;;;;;;;6.84;100.00;101351.25;5021531;28;20125;-78
2023/04/07 04:48:51;;;;;;;28.60;13.05;;;;;;;6.83;100.00;101357.53;5018059;28;20037;-78
2023/04/07 04:51:17;;;;;;;26.90;12.30;;;;;;;6.84;100.00;101353.94;5015020;28;20025;-78
2023/04/07 04:53:42;;;;;;;26.50;11.77;;;;;;;6.84;100.00;101359.28;5020938;28;20041;-78
2023/04/07 04:56:07;;;;;;;28.77;11.73;;;;;;;6.82;100.00;101355.78;5013220;28;20188;-78
2023/04/07 04:58:34;;;;;;;26.50;11.60;;;;;;;6.82;100.00;101362.00;5019965;28;20560;-78
2023/04/07 05:00:59;;;;;;;26.23;11.50;;;;;;;6.82;100.00;101361.13;5012201;28;20477;-78
2023/04/07 05:03:27;;;;;;;26.02;11.95;;;;;;;6.82;100.00;101367.38;5009327;28;20032;-78
2023/04/07 05:05:52;;;;;;;27.92;12.55;;;;;;;6.82;100.00;101370.03;5015974;28;20038;-78
2023/04/07 05:08:17;;;;;;;32.15;12.40;;;;;;;6.83;100.00;101368.22;5026583;28;20370;-78
2023/04/07 05:10:43;;;;;;;31.70;12.18;;;;;;;6.84;100.00;101377.97;5011568;28;20434;-78
2023/04/07 05:13:08;;;;;;;27.27;11.80;;;;;;;6.86;100.00;101377.91;5021568;28;20073;-78
2023/04/07 05:15:33;;;;;;;32.65;12.05;;;;;;;6.84;100.00;101377.97;5014539;28;20117;-78
2023/04/07 05:17:59;;;;;;;30.88;12.50;;;;;;;6.84;100.00;101377.97;5021015;28;20496;-78
2023/04/07 05:20:24;;;;;;;30.65;13.73;;;;;;;6.85;100.00;101381.50;5016703;28;20036;-78
2023/04/07 05:22:49;;;;;;;29.08;12.80;;;;;;;6.86;100.00;101383.25;5018643;28;20037;-78
2023/04/07 05:25:15;;;;;;;28.45;12.95;;;;;;;6.85;100.00;101382.34;5021565;28;20025;-78
2023/04/07 05:27:40;;;;;;;27.85;12.80;;;;;;;6.89;100.00;101385.75;5024463;28;20543;-78
2023/04/07 05:30:06;;;;;;;34.22;14.27;;;;;;;6.88;100.00;101382.22;5018268;28;20690;-78
2023/04/07 05:32:32;;;;;;;29.33;13.85;;;;;;;6.89;100.00;101391.09;5019732;28;20075;-78
2023/04/07 05:34:57;;;;;;;30.50;13.73;;;;;;;6.87;100.00;101396.53;5018838;28;20265;-78
2023/04/07 05:37:22;;;;;;;29.80;14.65;;;;;;;6.86;100.00;101397.44;5015242;28;20029;-78
2023/04/07 05:39:48;;;;;;;31.60;13.40;;;;;;;6.86;100.00;101397.44;5014075;28;20373;-78
2023/04/07 05:42:13;;;;;;;28.65;14.30;;;;;;;6.88;100.00;101406.28;5014363;28;21152;-78
2023/04/07 05:44:38;;;;;;;32.42;13.55;;;;;;;6.85;100.00;101400.19;5011394;28;20033;-78
2023/04/07 05:47:07;;;;;;;27.58;13.02;;;;;;;6.84;100.00;101399.34;5018077;28;20167;-77
2023/04/07 05:49:36;;;;;;;29.13;13.95;;;;;;;6.86;100.00;101400.13;5008492;28;20366;-78
2023/04/07 05:52:04;;;;;;;32.40;14.43;;;;;;;6.86;100.00;101400.13;5013170;28;20451;-78
2023/04/07 05:54:30;;;;;;;32.95;15.20;;;;;;;6.86;100.00;101397.44;5016333;28;20465;-78
2023/04/07 05:56:56;;;;;;;32.08;15.27;;;;;;;6.87;100.00;101407.22;5025345;28;20029;-78
2023/04/07 05:59:21;;;;;;;28.80;15.93;;;;;;;6.88;100.00;101400.94;5022530;28;20123;-78
2023/04/07 06:01:54;;;;;;;30.63;14.57;;;;;;;6.89;100.00;101399.97;5020875;28;20033;-78
2023/04/07 06:04:19;;;;;;;30.83;15.52;;;;;;;6.89;100.00;101397.28;5015943;28;20507;-78
2023/04/07 06:06:45;;;;;;;35.10;15.30;;;;;;;6.90;100.00;101412.41;5020723;28;20084;-78
2023/04/07 06:09:10;;;;;;;34.40;16.52;;;;;;;6.90;100.00;101409.72;5008709;28;20025;-78
2023/04/07 06:11:36;;;;;;;33.20;15.15;;;;;;;6.93;100.00;101412.25;5006181;28;20038;-78
2023/04/07 06:14:01;;;;;;;35.33;16.77;;;;;;;6.93;100.00;101412.25;5023710;28;20026;-78
2023/04/07 06:16:26;;;;;;;31.63;15.55;;;;;;;6.96;100.00;101411.25;5014261;28;20433;-78
2023/04/07 06:18:52;;;;;;;28.77;16.60;;;;;;;6.96;100.00;101414.75;5015307;28;20104;-78
2023/04/07 06:21:17;;;;;;;32.85;17.35;;;;;;;6.99;100.00;101417.28;5013045;28;20037;-78
2023/04/07 06:23:42;;;;;;;31.55;16.17;;;;;;;6.99;100.00;101416.44;5013109;28;20043;-78
2023/04/07 06:26:11;;;;;;;32.70;16.98;;;;;;;6.99;100.00;101421.78;5017469;28;20191;-78
2023/04/07 06:28:37;;;;;;;33.47;17.13;;;;;;;7.00;100.00;101420.84;5024264;28;20033;-78
2023/04/07 06:31:02;;;;;;;30.02;16.30;;;;;;;7.02;100.00;101423.44;5013636;28;20445;-78
2023/04/07 06:33:27;;;;;;;35.88;17.02;;;;;;;7.05;100.00;101424.13;5015220;28;20032;-78
2023/04/07 06:35:53;;;;;;;30.10;16.17;;;;;;;7.11;100.00;101433.66;5011539;28;20017;-78
2023/04/07 06:38:18;;;;;;;32.20;16.52;;;;;;;7.15;100.00;101428.09;5022678;28;20032;-78
2023/04/07 06:40:43;;;;;;;32.95;16.65;;;;;;;7.18;100.00;101429.75;5017667;28;20053;-78
2023/04/07 06:43:09;;;;;;;34.80;18.88;;;;;;;7.20;100.00;101429.66;5017008;28;20029;-78
2023/04/07 06:45:34;;;;;;;29.90;17.42;;;;;;;7.24;100.00;101433.94;5006137;28;20169;-78
2023/04/07 06:47:59;;;;;;;33.15;16.60;;;;;;;7.25;100.00;101439.19;5014758;28;20100;-78
2023/04/07 06:50:25;;;;;;;31.08;17.17;;;;;;;7.28;100.00;101441.72;5019159;28;20136;-78
2023/04/07 06:52:50;;;;;;;29.50;16.13;;;;;;;7.34;100.00;101449.41;5010258;28;20093;-77
2023/04/07 06:55:15;;;;;;;32.20;16.40;;;;;;;7.35;100.00;101440.47;5010344;28;20030;-78
2023/04/07 06:57:41;;;;;;;32.42;17.35;;;;;;;7.42;100.00;101443.69;5011008;28;20030;-77
2023/04/07 07:00:09;;;;;;;30.85;16.27;;;;;;;7.45;100.00;101446.22;5021413;28;20117;-78
2023/04/07 07:02:34;;;;;;;28.52;13.05;;;;;;;7.48;100.00;101453.19;5018880;28;20025;-78
2023/04/07 07:05:00;;;;;;;26.13;12.77;;;;;;;7.50;100.00;101448.66;5014128;28;20068;-78
2023/04/07 07:07:26;;;;;;;27.73;13.05;;;;;;;7.56;100.00;101453.69;5013643;28;20489;-78
2023/04/07 07:09:52;;;;;;;29.05;12.30;;;;;;;7.60;100.00;101454.38;5018709;28;20018;-78
2023/04/07 07:12:17;;;;;;;30.35;13.50;;;;;;;7.62;100.00;101457.88;5011395;28;20041;-78
2023/04/07 07:14:43;;;;;;;28.67;13.55;;;;;;;7.66;100.00;101456.78;5020175;28;20040;-78
2023/04/07 07:17:08;;;;;;;28.58;12.75;;;;;;;7.69;100.00;101454.78;5014616;28;20029;-78
2023/04/07 07:19:33;;;;;;;30.85;14.30;;;;;;;7.73;100.00;101455.50;5019006;28;20065;-78
2023/04/07 07:22:00;;;;;;;30.88;12.98;;;;;;;7.74;100.00;101451.88;5022267;28;20029;-78
2023/04/07 07:24:25;;;;;;;31.58;12.38;;;;;;;7.77;100.00;101466.91;5020399;28;20029;-79
2023/04/07 07:26:50;;;;;;;25.65;11.90;;;;;;;7.79;100.00;101462.31;5019819;28;20394;-78
2023/04/07 07:29:16;;;;;;;25.90;11.50;;;;;;;7.83;100.00;101463.91;5016266;28;20486;-78
2023/04/07 07:31:41;;;;;;;28.40;12.38;;;;;;;7.84;100.00;101463.81;5014489;28;20108;-78
2023/04/07 07:34:07;;;;;;;26.17;11.05;;;;;;;7.91;100.00;101464.38;5017781;28;20053;-78
2023/04/07 07:36:32;;;;;;;23.45;9.73;;;;;;;7.95;100.00;101465.06;5020403;28;20030;-78
2023/04/07 07:38:57;;;;;;;22.45;8.30;;;;;;;8.01;100.00;101470.13;5020009;28;20441;-78
2023/04/07 07:41:22;;;;;;;24.50;7.57;;;;;;;8.08;100.00;101481.38;5018447;28;20029;-78
2023/04/07 07:43:48;;;;;;;19.80;7.03;;;;;;;8.10;100.00;101485.69;5017342;28;20026;-78
2023/04/07 07:46:13;;;;;;;21.63;7.20;;;;;;;8.13;100.00;101490.88;5014143;28;20034;-78
2023/04/07 07:48:38;;;;;;;18.83;6.85;;;;;;;8.14;100.00;101486.38;5011312;28;20029;-79
2023/04/07 07:51:04;;;;;;;22.23;7.28;;;;;;;8.14;100.00;101492.63;5009339;28;20512;-78
2023/04/07 07:53:30;;;;;;;22.88;8.30;;;;;;;8.16;100.00;101492.53;5012138;28;20029;-78
2023/04/07 07:55:55;;;;;;;19.08;5.97;;;;;;;8.17;100.00;101497.81;5010868;28;20024;-78
2023/04/07 07:58:21;;;;;;;20.88;6.32;;;;;;;8.18;100.00;101487.97;5013847;28;20083;-78
2023/04/07 08:00:46;;;;;;;18.48;5.45;;;;;;;8.20;100.00;101491.44;5009838;28;20045;-78
2023/04/07 08:03:11;;;;;;;16.95;5.38;;;;;;;8.23;100.00;101494.81;5012010;28;20605;-78
2023/04/07 08:05:37;;;;;;;21.17;5.63;;;;;;;8.26;100.00;101501.81;5011821;28;20029;-78
2023/04/07 08:08:02;;;;;;;19.50;5.38;;;;;;;8.29;100.00;101498.13;5010149;28;20126;-78
2023/04/07 08:10:27;;;;;;;20.08;5.43;;;;;;;8.34;100.00;101499.56;5009807;28;20052;-78
2023/04/07 08:12:53;;;;;;;19.10;6.20;;;;;;;8.41;100.00;101502.81;5011829;28;20021;-78
2023/04/07 08:15:18;;;;;;;19.65;6.47;;;;;;;8.48;100.00;101498.03;5008373;28;20026;-79
2023/04/07 08:17:44;;;;;;;18.00;5.70;;;;;;;8.55;100.00;101507.44;5013379;28;20037;-78
2023/04/07 08:20:10;;;;;;;17.73;5.97;;;;;;;8.63;100.00;101509.72;5007034;28;20045;-79
2023/04/07 08:22:36;;;;;;;16.70;5.60;;;;;;;8.72;100.00;101509.22;5007403;28;20327;-78
2023/04/07 08:25:01;;;;;;;16.60;5.70;;;;;;;8.74;100.00;101508.19;5007086;28;20020;-78
2023/04/07 08:27:27;;;;;;;18.95;6.18;;;;;;;8.78;100.00;101516.06;5010816;28;20037;-78
2023/04/07 08:30:00;;;;;;;20.48;5.30;;;;;;;8.80;100.00;101516.81;5008216;28;20139;-78
2023/04/07 08:32:36;;;;;;;14.68;4.63;;;;;;;8.79;100.00;101523.16;5006268;28;20026;-78
2023/04/07 08:35:01;;;;;;;15.40;5.13;;;;;;;8.76;100.00;101526.00;5008590;28;20069;-78
2023/04/07 08:37:27;;;;;;;17.20;5.10;;;;;;;8.75;100.00;101525.13;5003955;28;20501;-78
2023/04/07 08:39:52;;;;;;;17.30;4.35;;;;;;;8.72;100.00;101538.69;5008670;28;20021;-78
2023/04/07 08:42:19;;;;;;;15.48;3.85;;;;;;;8.65;100.00;101529.25;5011274;28;20426;-78
2023/04/07 08:44:46;;;;;;;13.52;4.00;;;;;;;8.57;100.00;101533.22;5004817;28;20061;-78
2023/04/07 08:47:15;;;;;;;13.75;3.70;;;;;;;8.50;100.00;101529.13;5008010;28;20032;-78
2023/04/07 08:49:43;;;;;;;11.05;3.67;;;;;;;8.49;100.00;101538.13;5007295;28;20026;-78
2023/04/07 08:52:14;;;;;;;13.63;3.63;;;;;;;8.50;100.00;101539.00;5009732;28;20022;-78
2023/04/07 08:54:40;;;;;;;11.27;3.50;;;;;;;8.49;100.00;101545.28;5007834;28;20377;-78
2023/04/07 08:57:06;;;;;;;14.65;3.90;;;;;;;8.55;100.00;101555.66;5008334;28;20041;-78
2023/04/07 08:59:33;;;;;;;13.90;3.90;;;;;;;8.59;100.00;101557.25;5011456;28;20044;-77
2023/04/07 09:01:59;;;;;;;10.38;3.10;;;;;;;8.61;100.00;101550.00;5005539;28;20491;-78
2023/04/07 09:04:26;;;;;;;8.90;3.38;;;;;;;8.69;100.00;101557.63;5000566;28;20109;-78
2023/04/07 09:06:51;;;;;;;15.07;4.13;;;;;;;8.73;100.00;101553.84;5011086;28;20046;-77
2023/04/07 09:09:17;;;;;;;10.95;3.30;;;;;;;8.80;100.00;101554.34;5010579;28;20048;-78
2023/04/07 09:11:42;;;;;;;12.75;3.75;;;;;;;8.86;100.00;101554.88;5006005;28;20095;-77
2023/04/07 09:14:07;;;;;;;14.00;3.38;;;;;;;8.92;100.00;101551.88;5006078;28;20124;-77
2023/04/07 09:16:33;;;;;;;17.17;3.78;;;;;;;8.95;100.00;101556.19;5010587;28;20025;-77
2023/04/07 09:18:59;;;;;;;19.55;3.58;;;;;;;8.94;100.00;101551.78;5006338;28;20025;-77
2023/04/07 09:21:25;;;;;;;16.50;3.95;;;;;;;8.95;99.62;101558.03;5009334;28;20097;-77
2023/04/07 09:23:51;;;;;;;12.75;3.95;;;;;;;8.99;98.88;101556.88;5009699;28;20026;-77
2023/04/07 09:26:16;;;;;;;12.75;3.75;;;;;;;8.98;100.00;101553.34;5006430;28;20049;-77
2023/04/07 09:28:43;;;;;;;12.88;3.88;;;;;;;9.02;100.00;101562.06;5003494;28;20116;-77
2023/04/07 09:31:08;;;;;;;9.25;3.13;;;;;;;9.06;100.00;101563.63;5009440;28;20034;-77
2023/04/07 09:33:35;;;;;;;17.25;4.50;;;;;;;9.12;99.13;101557.06;5001701;28;20112;-77
2023/04/07 09:36:01;;;;;;;13.02;3.55;;;;;;;9.19;100.00;101563.81;5005497;28;20076;-77
2023/04/07 09:38:36;;;;;;;11.40;2.97;;;;;;;9.22;99.46;101564.53;5004053;28;20490;-77
2023/04/07 09:41:08;;;;;;;16.73;4.25;;;;;;;9.24;96.55;101569.81;5004633;28;20435;-77
2023/04/07 09:43:39;;;;;;;13.57;3.92;;;;;;;9.25;98.14;101567.03;5003409;28;20022;-77
2023/04/07 09:46:12;;;;;;;15.65;3.30;;;;;;;9.29;98.01;101562.34;5005491;28;20053;-77
2023/04/07 09:48:38;;;;;;;16.90;4.38;;;;;;;9.31;98.66;101563.13;5007579;28;20073;-77
2023/04/07 09:51:10;;;;;;;17.42;4.00;;;;;;;9.32;96.86;101564.00;5007801;28;20025;-77
2023/04/07 09:53:51;;;;;;;14.80;3.75;;;;;;;9.32;97.06;101555.97;5002368;28;20113;-77
2023/04/07 09:56:21;;;;;;;17.15;4.22;;;;;;;9.31;96.76;101564.94;5008560;28;20469;-77
2023/04/07 09:58:47;;;;;;;14.77;3.65;;;;;;;9.30;99.67;101564.09;5008617;28;20117;-77
2023/04/07 10:01:15;;;;;;;18.95;4.00;;;;;;;9.30;99.24;101564.09;5011002;28;20092;-76
2023/04/07 10:03:42;;;;;;;16.25;4.25;;;;;;;9.29;100.00;101561.50;5011828;28;20064;-77
2023/04/07 10:06:07;;;;;;;16.77;3.97;;;;;;;9.27;99.80;101569.63;5007375;28;20157;-77
2023/04/07 10:08:35;;;;;;;21.88;4.57;;;;;;;9.28;100.00;101568.66;5012763;28;20608;-77
2023/04/07 10:11:02;;;;;;;19.17;4.20;;;;;;;9.29;99.63;101573.09;5010695;28;20026;-77
2023/04/07 10:13:32;;;;;;;14.30;3.72;;;;;;;9.36;100.00;101566.41;5010125;28;20129;-77
2023/04/07 10:15:58;;;;;;;19.50;3.70;;;;;;;9.34;98.56;101575.50;5011411;28;20041;-77
2023/04/07 10:18:31;;;;;;;15.38;4.07;;;;;;;9.31;97.49;101578.34;5008341;28;20018;-77
2023/04/07 10:21:02;;;;;;;20.27;4.25;;;;;;;9.28;98.25;101582.06;5022701;28;20120;-77
2023/04/07 10:23:38;;;;;;;13.07;3.38;;;;;;;9.28;97.73;101584.75;5011526;28;20097;-77
2023/04/07 10:26:06;;;;;;;13.20;3.83;;;;;;;9.30;98.21;101588.22;5018326;28;20117;-77
2023/04/07 10:28:33;;;;;;;19.52;3.65;;;;;;;9.35;99.34;101586.16;5011497;28;20034;-77
2023/04/07 10:30:59;;;;;;;13.85;3.75;;;;;;;9.39;98.39;101593.06;5010880;28;20025;-77
2023/04/07 10:33:46;;;;;;;16.25;3.40;;;;;;;9.43;97.37;101608.06;5008126;28;20037;-77
2023/04/07 10:36:11;;;;;;;13.05;3.58;;;;;;;9.48;96.65;101601.56;5010362;28;20038;-77
2023/04/07 10:38:36;;;;;;;9.98;2.95;;;;;;;9.48;94.32;101601.56;5010414;28;20041;-77
2023/04/07 10:41:35;;;;;;;14.02;3.67;;;;;;;9.52;96.45;101597.75;5013233;28;20026;-77
2023/04/07 10:44:01;;;;;;;17.48;3.90;;;;;;;9.55;96.97;101616.38;5009230;28;20113;-77
2023/04/07 10:46:47;;;;;;;15.32;4.32;;;;;;;9.55;94.86;101609.16;5010926;28;20033;-77
2023/04/07 10:49:16;;;;;;;19.15;4.18;;;;;;;9.51;93.27;101609.44;5013193;28;20022;-77
2023/04/07 10:51:41;;;;;;;16.73;4.47;;;;;;;9.51;95.67;101604.06;5014301;28;20083;-77
2023/04/07 10:54:21;;;;;;;11.15;3.72;;;;;;;9.49;94.78;101606.84;5010064;28;20552;-77
2023/04/07 10:57:02;;;;;;;;;;;;;;;9.53;95.36;101612.88;5009733;28;20470;-77
2023/04/07 10:59:33;;;;;;;13.10;3.67;;;;;;;9.48;92.96;101614.97;5008118;28;20284;-77
2023/04/07 11:02:22;;;;;;;17.48;4.28;;;;;;;9.49;93.06;101622.06;5011424;28;20057;-77
2023/04/07 11:04:47;;;;;;;15.93;4.03;;;;;;;9.52;90.82;101621.91;5001817;28;20038;-77
2023/04/07 11:07:13;;;;;;;12.18;3.67;;;;;;;9.54;89.68;101607.44;5008926;28;20046;-77
2023/04/07 11:09:39;;;;;;;13.45;3.63;;;;;;;9.60;91.39;101612.47;5014426;28;20054;-77
2023/04/07 11:12:05;;;;;;;15.07;3.72;;;;;;;9.67;91.98;101615.66;5009264;28;20069;-77